createdAt,value
2019-04-22T00:02:10.793Z,4.58
2019-04-22T00:04:51.213Z,4.50
2019-04-22T00:07:31.999Z,4.57
2019-04-22T00:10:09.181Z,4.30
2019-04-22T00:12:42.842Z,4.43
2019-04-22T00:15:08.004Z,4.75
2019-04-22T00:17:45.171Z,4.70
2019-04-22T00:20:08.610Z,4.90
2019-04-22T00:22:38.424Z,4.55
2019-04-22T00:25:22.590Z,4.63
2019-04-22T00:27:48.999Z,4.70
2019-04-22T00:30:18.140Z,4.73
2019-04-22T00:33:04.780Z,5.00
2019-04-22T00:35:35.455Z,4.80
2019-04-22T00:38:11.158Z,4.60
2019-04-22T00:40:40.653Z,4.73
2019-04-22T00:43:13.942Z,4.87
2019-04-22T00:48:17.908Z,5.12
2019-04-22T00:50:46.712Z,4.93
2019-04-22T00:53:22.574Z,5.03
2019-04-22T00:55:54.101Z,4.97
2019-04-22T00:58:26.094Z,5.22
2019-04-22T01:01:02.084Z,4.87
2019-04-22T01:03:34.199Z,5.37
2019-04-22T01:06:03.476Z,5.23
2019-04-22T01:08:40.975Z,5.20
2019-04-22T01:11:10.271Z,5.47
2019-04-22T01:13:42.716Z,5.30
2019-04-22T01:16:13.815Z,4.70
2019-04-22T01:18:38.163Z,4.85
2019-04-22T01:21:21.499Z,4.40
2019-04-22T01:23:44.184Z,4.83
2019-04-22T01:26:13.971Z,4.35
2019-04-22T01:28:34.160Z,5.10
2019-04-22T01:31:02.607Z,4.67
2019-04-22T01:33:33.371Z,4.85
2019-04-22T01:36:15.300Z,5.67
2019-04-22T01:38:51.167Z,5.57
2019-04-22T01:41:37.752Z,5.25
2019-04-22T01:44:10.636Z,5.08
2019-04-22T01:46:31.527Z,4.80
2019-04-22T01:49:02.749Z,5.40
2019-04-22T01:51:40.661Z,4.97
2019-04-22T01:54:03.950Z,4.15
2019-04-22T01:56:36.476Z,4.80
2019-04-22T01:58:54.947Z,5.00
2019-04-22T02:01:40.115Z,4.73
2019-04-22T02:04:07.176Z,4.87
2019-04-22T02:06:45.701Z,4.80
2019-04-22T02:09:18.896Z,5.07
2019-04-22T02:11:48.737Z,5.28
2019-04-22T02:14:13.234Z,5.30
2019-04-22T02:16:50.359Z,4.75
2019-04-22T02:19:27.838Z,4.95
2019-04-22T02:21:52.781Z,5.95
2019-04-22T02:24:20.064Z,5.00
2019-04-22T02:26:48.223Z,5.43
2019-04-22T02:29:27.065Z,5.20
2019-04-22T02:31:59.594Z,5.65
2019-04-22T02:36:56.297Z,5.37
2019-04-22T02:39:29.834Z,5.00
2019-04-22T02:42:09.552Z,5.78
2019-04-22T02:52:14.529Z,5.17
2019-04-22T02:54:47.564Z,4.60
2019-04-22T02:59:39.665Z,6.00
2019-04-22T03:02:14.968Z,4.90
2019-04-22T03:04:59.860Z,5.30
2019-04-22T03:07:09.307Z,4.57
2019-04-22T03:09:50.841Z,4.50
2019-04-22T03:12:29.078Z,5.20
2019-04-22T03:14:48.519Z,5.40
2019-04-22T03:17:25.189Z,5.20
2019-04-22T03:22:31.812Z,5.20
2019-04-22T03:27:27.659Z,5.28
2019-04-22T03:37:49.316Z,5.33
2019-04-22T03:45:28.029Z,5.70
2019-04-22T03:47:50.885Z,6.20
2019-04-22T04:00:42.933Z,6.03
2019-04-22T04:05:45.567Z,5.73
2019-04-22T04:10:37.598Z,5.30
2019-04-22T04:13:02.906Z,5.58
2019-04-22T04:20:37.229Z,6.10
2019-04-22T04:23:19.892Z,6.35
2019-04-22T04:25:46.714Z,6.00
2019-04-22T04:28:36.025Z,6.08
2019-04-22T04:30:39.953Z,5.77
2019-04-22T04:36:03.595Z,6.20
2019-04-22T04:38:43.029Z,5.95
2019-04-22T04:40:49.307Z,6.03
2019-04-22T04:45:55.480Z,5.83
2019-04-22T04:48:32.662Z,6.55
2019-04-22T04:51:11.140Z,6.07
2019-04-22T04:53:29.288Z,6.35
2019-04-22T04:56:08.363Z,5.97
2019-04-22T05:03:45.583Z,6.60
2019-04-22T05:06:05.957Z,6.60
2019-04-22T05:08:52.908Z,6.33
2019-04-22T05:16:27.068Z,6.40
2019-04-22T05:18:49.189Z,6.37
2019-04-22T05:21:14.794Z,6.42
2019-04-22T05:23:48.872Z,6.87
2019-04-22T05:26:18.245Z,6.63
2019-04-22T05:28:35.067Z,6.30
2019-04-22T05:31:15.454Z,6.37
2019-04-22T05:33:41.117Z,6.00
2019-04-22T05:36:12.654Z,6.77
2019-04-22T05:38:49.446Z,6.30
2019-04-22T05:41:17.794Z,5.47
2019-04-22T05:43:51.698Z,6.20
2019-04-22T05:46:20.651Z,6.27
2019-04-22T05:48:53.855Z,5.33
2019-04-22T05:51:21.170Z,5.17
2019-04-22T05:53:57.545Z,5.70
2019-04-22T05:56:37.524Z,5.57
2019-04-22T05:58:58.786Z,6.17
2019-04-22T06:04:08.461Z,5.62
2019-04-22T06:06:30.684Z,5.63
2019-04-22T06:11:29.867Z,6.40
2019-04-22T06:13:59.167Z,5.23
2019-04-22T06:16:38.029Z,5.62
2019-04-22T06:19:08.641Z,5.70
2019-04-22T06:21:38.748Z,5.80
2019-04-22T06:27:01.692Z,5.67
2019-04-22T06:29:16.346Z,5.53
2019-04-22T06:32:03.637Z,4.70
2019-04-22T06:34:17.641Z,5.67
2019-04-22T06:39:23.488Z,5.50
2019-04-22T06:41:51.237Z,5.17
2019-04-22T06:46:52.348Z,5.70
2019-04-22T06:49:26.727Z,5.92
2019-04-22T06:51:53.712Z,5.63
2019-04-22T06:54:28.174Z,5.57
2019-04-22T06:56:57.757Z,5.40
2019-04-22T06:59:32.745Z,5.42
2019-04-22T07:02:02.368Z,4.87
2019-04-22T07:04:27.967Z,5.15
2019-04-22T07:07:03.381Z,4.93
2019-04-22T07:09:42.940Z,5.23
2019-04-22T07:12:09.811Z,5.20
2019-04-22T07:14:35.273Z,5.62
2019-04-22T07:17:08.638Z,5.57
2019-04-22T07:19:40.612Z,5.70
2019-04-22T07:22:11.136Z,5.47
2019-04-22T07:29:46.635Z,4.95
2019-04-22T07:32:16.520Z,5.67
2019-04-22T07:34:50.326Z,5.40
2019-04-22T07:37:32.972Z,5.37
2019-04-22T07:39:45.806Z,4.83
2019-04-22T07:42:24.597Z,5.37
2019-04-22T07:44:55.800Z,4.90
2019-04-22T07:47:25.623Z,5.20
2019-04-22T07:50:22.178Z,5.50
2019-04-22T07:54:56.834Z,5.00
2019-04-22T07:57:32.706Z,5.47
2019-04-22T08:00:02.946Z,5.58
2019-04-22T08:02:31.782Z,5.60
2019-04-22T08:10:17.103Z,4.53
2019-04-22T08:12:39.201Z,5.63
2019-04-22T08:15:06.094Z,5.22
2019-04-22T08:20:14.064Z,5.17
2019-04-22T08:22:43.085Z,5.23
2019-04-22T08:25:10.381Z,5.12
2019-04-22T08:27:46.757Z,5.20
2019-04-22T08:30:23.476Z,4.23
2019-04-22T08:32:45.928Z,4.77
2019-04-22T08:35:27.827Z,4.95
2019-04-22T08:37:51.041Z,4.60
2019-04-22T08:40:32.058Z,4.73
2019-04-22T08:45:30.345Z,5.12
2019-04-22T08:47:47.952Z,5.00
2019-04-22T08:50:28.386Z,5.07
2019-04-22T08:53:05.914Z,4.78
2019-04-22T08:55:31.340Z,5.10
2019-04-22T08:58:16.762Z,4.90
2019-04-22T09:00:37.367Z,4.50
2019-04-22T09:03:08.951Z,4.47
2019-04-22T09:06:04.723Z,4.43
2019-04-22T09:08:10.875Z,5.10
2019-04-22T09:10:40.468Z,4.60
2019-04-22T09:13:26.394Z,4.80
2019-04-22T09:15:42.475Z,5.07
2019-04-22T09:18:14.552Z,4.92
2019-04-22T09:20:48.685Z,4.53
2019-04-22T09:23:15.629Z,4.93
2019-04-22T09:25:39.207Z,4.65
2019-04-22T09:28:17.507Z,5.20
2019-04-22T09:30:55.565Z,4.77
2019-04-22T09:33:21.107Z,4.78
2019-04-22T09:35:52.389Z,5.10
2019-04-22T09:38:31.246Z,5.13
2019-04-22T09:40:52.072Z,4.50
2019-04-22T09:43:31.606Z,5.53
2019-04-22T09:45:58.141Z,5.30
2019-04-22T09:48:30.050Z,5.33
2019-04-22T09:50:59.113Z,5.17
2019-04-22T09:53:31.927Z,5.37
2019-04-22T09:56:03.726Z,5.20
2019-04-22T09:58:40.070Z,4.70
2019-04-22T10:01:32.333Z,4.80
2019-04-22T10:03:51.713Z,4.28
2019-04-22T10:06:29.430Z,4.60
2019-04-22T10:09:01.734Z,4.60
2019-04-22T10:11:31.077Z,5.27
2019-04-22T10:13:54.103Z,4.90
2019-04-22T10:16:27.189Z,5.43
2019-04-22T10:21:37.179Z,4.80
2019-04-22T10:23:59.454Z,4.80
2019-04-22T10:26:33.424Z,4.80
2019-04-22T10:33:53.241Z,4.92
2019-04-22T10:36:10.216Z,4.27
2019-04-22T10:38:40.250Z,4.42
2019-04-22T10:41:12.209Z,4.40
2019-04-22T10:43:43.283Z,4.45
2019-04-22T10:46:13.906Z,4.15
2019-04-22T10:48:46.138Z,3.80
2019-04-22T10:51:16.919Z,4.60
2019-04-22T10:53:49.239Z,4.10
2019-04-22T10:56:19.196Z,3.95
2019-04-22T10:58:50.841Z,4.22
2019-04-22T11:01:21.240Z,4.17
2019-04-22T11:03:51.156Z,4.00
2019-04-22T11:06:21.340Z,4.40
2019-04-22T11:08:56.374Z,4.35
2019-04-22T11:11:37.722Z,4.33
2019-04-22T11:13:55.993Z,4.12
2019-04-22T11:16:25.724Z,4.05
2019-04-22T11:18:57.313Z,4.40
2019-04-22T11:21:27.449Z,4.05
2019-04-22T11:23:58.606Z,4.45
2019-04-22T11:26:28.415Z,4.08
2019-04-22T11:28:59.374Z,4.62
2019-04-22T11:31:30.374Z,4.05
2019-04-22T11:34:00.806Z,4.33
2019-04-22T11:36:32.536Z,4.40
2019-04-22T11:39:05.678Z,4.40
2019-04-22T11:41:36.073Z,4.60
2019-04-22T11:44:07.575Z,4.12
2019-04-22T11:46:39.086Z,4.72
2019-04-22T11:49:12.094Z,4.00
2019-04-22T11:51:42.072Z,4.10
2019-04-22T11:54:12.542Z,4.15
2019-04-22T11:56:43.059Z,4.28
2019-04-22T11:59:13.063Z,4.08
2019-04-22T12:01:42.918Z,4.50
2019-04-22T12:04:13.722Z,4.30
2019-04-22T12:06:46.167Z,4.30
2019-04-22T12:09:17.408Z,4.28
2019-04-22T12:11:47.394Z,4.30
2019-04-22T12:14:18.154Z,4.72
2019-04-22T12:16:49.753Z,4.78
2019-04-22T12:21:51.183Z,4.55
2019-04-22T12:24:21.463Z,4.50
2019-04-22T12:26:52.738Z,4.00
2019-04-22T12:29:22.751Z,4.55
2019-04-22T12:31:53.596Z,4.58
2019-04-22T12:34:25.766Z,4.27
2019-04-22T12:36:56.250Z,4.00
2019-04-22T12:39:27.368Z,3.72
2019-04-22T12:41:58.316Z,4.12
2019-04-22T12:44:30.401Z,4.80
2019-04-22T12:47:01.989Z,4.00
2019-04-22T12:49:32.201Z,4.70
2019-04-22T12:52:03.120Z,4.08
2019-04-22T12:54:35.140Z,6.00
2019-04-22T12:57:04.218Z,3.95
2019-04-22T12:59:35.254Z,4.10
2019-04-22T13:02:05.146Z,3.58
2019-04-22T13:04:36.139Z,3.65
2019-04-22T13:07:06.164Z,3.60
2019-04-22T13:09:37.060Z,3.92
2019-04-22T13:12:08.942Z,3.55
2019-04-22T13:14:39.146Z,3.27
2019-04-22T13:17:19.024Z,3.35
2019-04-22T13:19:49.869Z,3.42
2019-04-22T13:22:21.040Z,3.57
2019-04-22T13:24:51.995Z,3.50
2019-04-22T13:27:21.937Z,3.73
2019-04-22T13:29:55.060Z,3.30
2019-04-22T13:32:25.023Z,3.80
2019-04-22T13:34:57.981Z,3.70
2019-04-22T13:37:26.205Z,3.20
2019-04-22T13:39:56.905Z,3.75
2019-04-22T13:42:27.582Z,3.20
2019-04-22T13:44:58.151Z,3.50
2019-04-22T13:47:42.359Z,3.15
2019-04-22T13:50:34.608Z,3.17
2019-04-22T13:55:36.631Z,2.87
2019-04-22T13:57:45.627Z,2.55
2019-04-22T14:00:09.550Z,2.92
2019-04-22T14:02:44.636Z,3.27
2019-04-22T14:05:16.969Z,3.40
2019-04-22T14:07:46.816Z,3.37
2019-04-22T14:10:18.430Z,3.40
2019-04-22T14:12:48.843Z,2.87
2019-04-22T14:15:20.070Z,3.47
2019-04-22T14:17:50.946Z,3.35
2019-04-22T14:20:24.081Z,3.13
2019-04-22T14:22:54.754Z,3.25
2019-04-22T14:25:24.861Z,3.10
2019-04-22T14:28:01.971Z,3.40
2019-04-22T14:32:56.077Z,3.40
2019-04-22T14:35:27.024Z,3.35
2019-04-22T14:40:28.270Z,3.98
2019-04-22T14:44:24.241Z,3.98
2019-04-22T14:46:04.654Z,3.65
2019-04-22T14:48:33.588Z,3.58
2019-04-22T14:50:53.131Z,3.55
2019-04-22T14:53:23.646Z,3.40
2019-04-22T14:55:37.734Z,4.12
2019-04-22T14:58:06.793Z,3.70
2019-04-22T15:00:37.963Z,3.30
2019-04-22T15:05:39.918Z,3.60
2019-04-22T15:08:10.868Z,3.45
2019-04-22T15:10:42.038Z,3.27
2019-04-22T15:13:13.342Z,3.30
2019-04-22T15:15:51.199Z,3.45
2019-04-22T15:18:37.963Z,3.00
2019-04-22T15:21:09.198Z,3.45
2019-04-22T15:23:40.342Z,3.37
2019-04-22T15:26:12.493Z,3.25
2019-04-22T15:28:43.414Z,3.47
2019-04-22T15:31:13.301Z,2.90
2019-04-22T15:33:48.022Z,4.30
2019-04-22T15:36:15.662Z,3.83
2019-04-22T15:38:47.254Z,3.50
2019-04-22T15:41:16.752Z,3.95
2019-04-22T15:43:47.544Z,3.40
2019-04-22T15:46:20.062Z,3.67
2019-04-22T15:48:49.815Z,3.10
2019-04-22T15:51:20.686Z,3.35
2019-04-22T15:53:51.956Z,3.35
2019-04-22T15:56:22.907Z,3.20
2019-04-22T15:58:53.504Z,3.20
2019-04-22T16:01:28.830Z,2.65
2019-04-22T16:03:56.536Z,3.10
2019-04-22T16:06:26.231Z,3.80
2019-04-22T16:08:56.126Z,3.02
2019-04-22T16:11:25.807Z,3.67
2019-04-22T16:13:56.614Z,2.62
2019-04-22T16:16:26.558Z,2.52
2019-04-22T16:18:56.316Z,2.83
2019-04-22T16:21:33.785Z,2.92
2019-04-22T16:24:00.317Z,2.92
2019-04-22T16:26:40.583Z,2.83
2019-04-22T16:29:11.830Z,2.52
2019-04-22T16:31:41.413Z,2.98
2019-04-22T16:34:13.304Z,2.50
2019-04-22T16:36:44.835Z,2.52
2019-04-22T16:39:15.229Z,2.60
2019-04-22T16:41:46.552Z,2.40
2019-04-22T16:44:16.578Z,2.65
2019-04-22T16:46:47.923Z,2.52
2019-04-22T16:49:17.702Z,2.40
2019-04-22T16:51:47.858Z,2.45
2019-04-22T16:54:18.021Z,2.83
2019-04-22T16:56:50.050Z,2.65
2019-04-22T16:59:19.103Z,3.17
2019-04-22T17:01:54.459Z,2.72
2019-04-22T17:04:28.265Z,3.47
2019-04-22T17:06:57.671Z,2.55
2019-04-22T17:09:29.760Z,4.12
2019-04-22T17:11:59.633Z,2.47
2019-04-22T17:14:35.904Z,2.55
2019-04-22T17:17:02.301Z,2.42
2019-04-22T17:19:33.303Z,2.30
2019-04-22T17:22:05.819Z,2.37
2019-04-22T17:24:35.431Z,2.70
2019-04-22T17:27:06.411Z,2.60
2019-04-22T17:29:56.943Z,2.17
2019-04-22T17:32:28.738Z,2.60
2019-04-22T17:34:59.932Z,2.47
2019-04-22T17:37:32.071Z,2.15
2019-04-22T17:40:14.650Z,2.50
2019-04-22T17:42:49.524Z,2.27
2019-04-22T17:45:26.048Z,2.70
2019-04-22T17:48:18.317Z,2.40
2019-04-22T17:50:50.924Z,2.65
2019-04-22T17:53:27.666Z,2.25
2019-04-22T17:55:55.811Z,2.62
2019-04-22T17:58:25.601Z,2.72
2019-04-22T18:01:04.353Z,2.60
2019-04-22T18:03:20.270Z,2.35
2019-04-22T18:05:48.033Z,2.37
2019-04-22T18:08:31.655Z,2.40
2019-04-22T18:11:06.337Z,2.60
2019-04-22T18:13:39.461Z,2.53
2019-04-22T18:16:08.158Z,2.55
2019-04-22T18:18:38.700Z,2.73
2019-04-22T18:21:05.028Z,2.45
2019-04-22T18:23:26.332Z,2.42
2019-04-22T18:26:05.435Z,2.80
2019-04-22T18:28:47.857Z,2.93
2019-04-22T18:31:12.017Z,3.05
2019-04-22T18:33:46.065Z,3.47
2019-04-22T18:36:14.072Z,2.77
2019-04-22T18:38:59.879Z,2.83
2019-04-22T18:41:12.871Z,3.00
2019-04-22T18:43:51.672Z,2.80
2019-04-22T18:46:21.051Z,2.90
2019-04-22T18:48:55.752Z,2.70
2019-04-22T18:51:29.373Z,2.95
2019-04-22T18:54:01.891Z,3.17
2019-04-22T18:56:32.470Z,3.15
2019-04-22T18:58:57.164Z,3.30
2019-04-22T19:01:17.735Z,3.27
2019-04-22T19:06:46.136Z,3.65
2019-04-22T19:09:17.365Z,3.65
2019-04-22T19:11:59.522Z,3.53
2019-04-22T19:14:35.395Z,3.27
2019-04-22T19:16:48.164Z,4.00
2019-04-22T19:21:49.494Z,2.70
2019-04-22T19:24:17.317Z,3.45
2019-04-22T19:26:59.211Z,3.33
2019-04-22T19:29:28.452Z,3.62
2019-04-22T19:31:52.736Z,3.37
2019-04-22T19:34:20.495Z,3.27
2019-04-22T19:36:55.984Z,3.30
2019-04-22T19:39:22.792Z,3.67
2019-04-22T19:42:04.742Z,3.22
2019-04-22T19:44:30.896Z,4.08
2019-04-22T19:47:19.528Z,3.25
2019-04-22T19:49:38.365Z,4.10
2019-04-22T19:52:12.133Z,3.70
2019-04-22T19:54:38.912Z,4.28
2019-04-22T19:57:05.834Z,4.53
2019-04-22T19:59:32.344Z,4.00
2019-04-22T20:02:25.495Z,4.00
2019-04-22T20:05:05.827Z,4.03
2019-04-22T20:07:38.482Z,4.58
2019-04-22T20:10:17.218Z,4.50
2019-04-22T20:12:42.476Z,4.37
2019-04-22T20:15:17.031Z,4.00
2019-04-22T20:18:08.610Z,4.10
2019-04-22T20:20:23.048Z,4.10
2019-04-22T20:22:48.084Z,4.53
2019-04-22T20:25:11.046Z,4.27
2019-04-22T20:27:58.114Z,4.10
2019-04-22T20:30:29.286Z,4.45
2019-04-22T20:32:56.341Z,4.10
2019-04-22T20:35:34.073Z,4.23
2019-04-22T20:38:03.882Z,4.40
2019-04-22T20:40:38.284Z,4.15
2019-04-22T20:43:07.595Z,4.35
2019-04-22T20:45:39.780Z,4.17
2019-04-22T20:47:59.087Z,4.70
2019-04-22T20:50:41.724Z,4.40
2019-04-22T20:53:15.490Z,4.55
2019-04-22T20:55:46.427Z,4.08
2019-04-22T20:58:12.184Z,4.57
2019-04-22T21:00:39.108Z,4.93
2019-04-22T21:03:06.281Z,4.10
2019-04-22T21:05:38.278Z,5.00
2019-04-22T21:08:20.874Z,4.60
2019-04-22T21:10:37.429Z,4.30
2019-04-22T21:13:14.425Z,4.40
2019-04-22T21:15:57.978Z,4.55
2019-04-22T21:18:20.071Z,4.10
2019-04-22T21:20:56.223Z,4.60
2019-04-22T21:23:21.065Z,4.20
2019-04-22T21:25:54.832Z,4.30
2019-04-22T21:28:25.900Z,4.22
2019-04-22T21:30:57.146Z,4.20
2019-04-22T21:33:19.511Z,4.07
2019-04-22T21:36:09.602Z,4.55
2019-04-22T21:38:32.630Z,4.20
2019-04-22T21:41:04.971Z,4.97
2019-04-22T21:43:38.586Z,4.70
2019-04-22T21:46:11.773Z,4.03
2019-04-22T21:48:42.129Z,4.30
2019-04-22T21:51:10.938Z,5.20
2019-04-22T21:53:52.181Z,4.23
2019-04-22T21:56:29.071Z,4.83
2019-04-22T21:58:50.676Z,4.80
2019-04-22T22:01:38.318Z,4.58
2019-04-22T22:04:00.681Z,4.78
2019-04-22T22:06:19.605Z,4.97
2019-04-22T22:09:02.561Z,4.87
2019-04-22T22:11:27.867Z,4.90
2019-04-22T22:14:06.677Z,4.67
2019-04-22T22:16:27.368Z,5.07
2019-04-22T22:19:08.146Z,4.67
2019-04-22T22:24:09.024Z,4.70
2019-04-22T22:26:40.177Z,4.97
2019-04-22T22:29:24.549Z,4.55
2019-04-22T22:31:46.988Z,4.60
2019-04-22T22:34:16.695Z,4.85
2019-04-22T22:36:40.903Z,5.63
2019-04-22T22:39:12.817Z,5.05
2019-04-22T22:41:27.918Z,5.37
2019-04-22T22:44:06.937Z,4.60
2019-04-22T22:46:37.407Z,4.80
2019-04-22T22:49:22.895Z,5.58
2019-04-22T22:51:57.084Z,4.80
2019-04-22T22:54:28.101Z,4.50
2019-04-22T22:57:19.552Z,5.00
2019-04-22T22:59:29.960Z,4.90
2019-04-22T23:01:54.416Z,5.17
2019-04-22T23:04:32.840Z,4.87
2019-04-22T23:07:05.549Z,5.00
2019-04-22T23:09:30.517Z,5.10
2019-04-22T23:14:34.397Z,5.17
2019-04-22T23:16:51.426Z,5.47
2019-04-22T23:19:17.751Z,5.67
2019-04-22T23:21:53.800Z,5.43
2019-04-22T23:24:48.244Z,5.00
2019-04-22T23:27:28.112Z,5.03
2019-04-22T23:29:57.609Z,5.30
2019-04-22T23:32:31.986Z,5.60
2019-04-22T23:35:09.737Z,5.05
2019-04-22T23:37:39.512Z,5.10
2019-04-22T23:40:24.100Z,5.25
2019-04-22T23:42:44.607Z,5.37
2019-04-22T23:45:14.064Z,5.53
2019-04-22T23:47:39.078Z,5.28
2019-04-22T23:50:20.802Z,5.15
2019-04-22T23:52:53.335Z,5.70
2019-04-22T23:55:26.062Z,5.55
2019-04-22T23:57:56.757Z,5.50
